createdAt,value
2023-08-14T00:02:46.750Z,5.60
2023-08-14T00:07:48.546Z,4.63
2023-08-14T00:12:50.389Z,4.72
2023-08-14T00:17:52.432Z,5.20
2023-08-14T00:22:54.240Z,5.10
2023-08-14T00:27:56.149Z,5.18
2023-08-14T00:32:58.065Z,5.00
2023-08-14T00:38:02.448Z,5.13
2023-08-14T00:43:04.459Z,4.63
2023-08-14T00:48:08.557Z,4.97
2023-08-14T00:53:11.639Z,5.00
2023-08-14T00:58:14.302Z,5.82
2023-08-14T01:03:17.865Z,5.72
2023-08-14T01:08:19.866Z,5.30
2023-08-14T01:13:24.514Z,4.80
2023-08-14T01:18:28.057Z,5.00
2023-08-14T01:23:36.669Z,4.68
2023-08-14T01:28:39.940Z,4.88
2023-08-14T01:33:41.781Z,4.78
2023-08-14T01:39:04.128Z,4.78
2023-08-14T01:44:10.175Z,4.60
2023-08-14T01:49:14.751Z,4.95
2023-08-14T01:54:16.646Z,5.07
2023-08-14T01:59:18.577Z,4.57
2023-08-14T02:04:20.480Z,4.53
2023-08-14T02:09:22.340Z,4.80
2023-08-14T02:14:25.953Z,4.95
2023-08-14T02:19:27.837Z,4.80
2023-08-14T02:24:29.686Z,5.05
2023-08-14T02:29:31.659Z,5.00
2023-08-14T02:34:33.691Z,4.93
2023-08-14T02:39:35.530Z,4.10
2023-08-14T02:44:37.882Z,4.80
2023-08-14T02:49:39.872Z,4.47
2023-08-14T02:54:41.758Z,4.10
2023-08-14T02:59:43.776Z,4.57
2023-08-14T03:04:45.582Z,4.20
2023-08-14T03:09:47.529Z,4.57
2023-08-14T03:14:49.375Z,5.00
2023-08-14T03:19:51.202Z,4.40
2023-08-14T03:24:53.065Z,4.38
2023-08-14T03:29:54.998Z,4.10
2023-08-14T03:34:57.523Z,3.45
2023-08-14T03:40:00.269Z,3.58
2023-08-14T03:45:04.743Z,3.47
2023-08-14T03:50:07.050Z,3.70
2023-08-14T03:55:09.747Z,3.60
2023-08-14T04:00:11.988Z,3.30
2023-08-14T04:05:17.905Z,2.88
2023-08-14T04:10:19.895Z,2.80
2023-08-14T04:15:22.257Z,2.88
2023-08-14T04:20:24.149Z,2.53
2023-08-14T04:25:26.093Z,2.50
2023-08-14T04:30:27.928Z,2.40
2023-08-14T04:35:29.875Z,2.20
2023-08-14T04:40:33.342Z,2.03
2023-08-14T04:45:35.854Z,2.22
2023-08-14T04:50:37.809Z,2.38
2023-08-14T04:55:39.826Z,1.80
2023-08-14T05:00:41.803Z,2.05
2023-08-14T05:05:52.428Z,2.47
2023-08-14T05:10:55.932Z,1.92
2023-08-14T05:16:07.056Z,2.22
2023-08-14T05:21:11.944Z,2.00
2023-08-14T05:26:13.845Z,2.35
2023-08-14T05:31:15.675Z,1.80
2023-08-14T05:36:17.599Z,1.75
2023-08-14T05:41:20.188Z,1.63
2023-08-14T05:46:25.109Z,1.83
2023-08-14T05:51:27.122Z,1.33
2023-08-14T05:56:28.988Z,1.48
2023-08-14T06:01:30.910Z,1.52
2023-08-14T06:06:32.816Z,2.15
2023-08-14T06:11:36.735Z,2.03
2023-08-14T06:16:38.915Z,2.08
2023-08-14T06:21:40.688Z,1.52
2023-08-14T06:26:42.497Z,2.70
2023-08-14T06:31:44.327Z,2.17
2023-08-14T06:36:46.224Z,1.90
2023-08-14T06:41:48.064Z,2.50
2023-08-14T06:46:53.103Z,2.13
2023-08-14T06:51:55.901Z,2.00
2023-08-14T06:56:57.815Z,3.22
2023-08-14T07:01:59.746Z,2.60
2023-08-14T07:07:01.626Z,2.38
2023-08-14T07:12:03.802Z,2.45
2023-08-14T07:17:05.729Z,2.15
2023-08-14T07:22:07.568Z,2.80
2023-08-14T07:27:09.396Z,2.30
2023-08-14T07:32:11.198Z,2.35
2023-08-14T07:37:13.433Z,2.40
2023-08-14T07:42:15.300Z,2.50
2023-08-14T07:47:17.074Z,2.08
2023-08-14T07:52:18.973Z,2.10
2023-08-14T07:57:21.413Z,2.05
2023-08-14T08:02:23.592Z,2.13
2023-08-14T08:07:26.041Z,2.10
2023-08-14T08:12:28.068Z,3.22
2023-08-14T08:17:30.018Z,1.98
2023-08-14T08:22:31.914Z,2.10
2023-08-14T08:27:35.991Z,2.30
2023-08-14T08:32:39.345Z,2.35
2023-08-14T08:37:42.609Z,2.00
2023-08-14T08:42:44.495Z,2.08
2023-08-14T08:47:49.274Z,2.15
2023-08-14T08:52:51.878Z,2.15
2023-08-14T08:57:55.588Z,2.35
2023-08-14T09:02:57.574Z,1.75
2023-08-14T09:07:59.465Z,1.88
2023-08-14T09:13:02.149Z,1.85
2023-08-14T09:18:04.188Z,2.00
2023-08-14T09:23:10.621Z,2.15
2023-08-14T09:28:13.141Z,1.73
2023-08-14T09:33:15.122Z,2.25
2023-08-14T09:38:17.007Z,1.75
2023-08-14T09:43:20.641Z,2.10
2023-08-14T09:48:23.062Z,2.10
2023-08-14T09:53:24.920Z,2.38
2023-08-14T09:58:26.865Z,2.97
2023-08-14T10:03:29.139Z,2.58
2023-08-14T10:08:34.655Z,2.58
2023-08-14T10:13:43.155Z,2.45
2023-08-14T10:18:47.595Z,2.50
2023-08-14T10:23:51.240Z,2.50
2023-08-14T10:28:54.391Z,2.25
2023-08-14T10:33:58.323Z,2.38
2023-08-14T10:39:18.771Z,2.50
2023-08-14T10:44:21.365Z,2.28
2023-08-14T10:49:23.319Z,2.50
2023-08-14T10:54:25.266Z,2.47
2023-08-14T10:59:32.819Z,2.35
2023-08-14T11:04:37.812Z,2.50
2023-08-14T11:09:40.828Z,2.50
2023-08-14T11:14:43.223Z,2.40
2023-08-14T11:19:45.087Z,2.88
2023-08-14T11:24:47.877Z,2.80
2023-08-14T11:29:53.483Z,2.78
2023-08-14T11:34:56.117Z,3.28
2023-08-14T11:40:03.599Z,3.22
2023-08-14T11:45:06.715Z,2.58
2023-08-14T11:50:09.083Z,2.90
2023-08-14T11:55:11.544Z,3.10
2023-08-14T12:00:17.756Z,3.10
2023-08-14T12:05:23.073Z,2.70
2023-08-14T12:10:24.951Z,2.92
2023-08-14T12:15:26.829Z,3.00
2023-08-14T12:20:32.593Z,3.20
2023-08-14T12:25:34.478Z,2.78
2023-08-14T12:30:36.274Z,2.60
2023-08-14T12:35:38.135Z,2.58
2023-08-14T12:40:40.102Z,2.55
2023-08-14T12:45:42.899Z,3.10
2023-08-14T12:50:44.716Z,2.80
2023-08-14T12:55:54.767Z,2.55
2023-08-14T13:01:05.892Z,2.60
2023-08-14T13:06:08.415Z,2.50
2023-08-14T13:11:10.223Z,2.38
2023-08-14T13:16:12.316Z,2.75
2023-08-14T13:21:14.208Z,2.00
2023-08-14T13:31:21.548Z,2.28
2023-08-14T13:36:23.654Z,2.95
2023-08-14T13:41:25.474Z,2.55
2023-08-14T13:46:27.398Z,2.47
2023-08-14T13:51:29.426Z,3.42
2023-08-14T13:56:31.472Z,2.92
2023-08-14T14:01:33.438Z,2.53
2023-08-14T14:06:35.354Z,2.65
2023-08-14T14:11:37.193Z,2.88
2023-08-14T14:16:53.530Z,2.67
2023-08-14T14:22:00.180Z,2.92
2023-08-14T14:27:03.158Z,2.60
2023-08-14T14:32:05.219Z,2.70
2023-08-14T14:37:07.111Z,3.78
2023-08-14T14:42:09.025Z,3.00
2023-08-14T14:47:10.879Z,3.33
2023-08-14T14:52:12.687Z,3.63
2023-08-14T14:57:14.633Z,3.92
2023-08-14T15:02:28.665Z,4.47
2023-08-14T15:07:31.908Z,4.47
2023-08-14T15:12:33.722Z,10.07
2023-08-14T15:17:38.976Z,5.50
2023-08-14T15:22:45.398Z,3.85
2023-08-14T15:27:47.338Z,3.15
2023-08-14T15:32:49.302Z,4.50
2023-08-14T15:37:51.487Z,3.45
2023-08-14T15:42:53.486Z,3.08
2023-08-14T15:47:59.370Z,4.22
2023-08-14T15:53:01.222Z,3.60
2023-08-14T15:58:03.162Z,3.60
2023-08-14T16:03:07.718Z,3.38
2023-08-14T16:08:09.687Z,3.38
2023-08-14T16:13:11.660Z,3.70
2023-08-14T16:18:17.398Z,3.00
2023-08-14T16:23:22.824Z,3.25
2023-08-14T16:28:24.590Z,4.57
2023-08-14T16:33:26.381Z,3.78
2023-08-14T16:38:28.251Z,3.80
2023-08-14T16:43:30.154Z,3.42
2023-08-14T16:48:32.070Z,3.60
2023-08-14T16:53:34.122Z,4.00
2023-08-14T16:58:36.010Z,4.88
2023-08-14T17:03:38.056Z,4.28
2023-08-14T17:08:39.974Z,6.07
2023-08-14T17:13:42.053Z,5.40
2023-08-14T17:18:44.041Z,4.57
2023-08-14T17:23:45.851Z,4.07
2023-08-14T17:28:47.969Z,4.55
2023-08-14T17:33:49.850Z,4.70
2023-08-14T17:38:51.730Z,4.65
2023-08-14T17:43:53.575Z,4.90
2023-08-14T17:48:55.438Z,4.18
2023-08-14T17:53:57.262Z,3.63
2023-08-14T17:58:59.977Z,4.10
2023-08-14T18:04:01.808Z,4.15
2023-08-14T18:09:04.998Z,4.57
2023-08-14T18:14:07.279Z,4.38
2023-08-14T18:19:28.009Z,4.25
2023-08-14T18:24:31.116Z,4.72
2023-08-14T18:29:33.066Z,5.13
2023-08-14T18:34:34.925Z,5.30
2023-08-14T18:39:36.854Z,5.63
2023-08-14T18:44:38.733Z,5.55
2023-08-14T18:49:45.704Z,5.50
2023-08-14T18:54:47.823Z,5.57
2023-08-14T18:59:49.685Z,4.75
2023-08-14T19:04:52.029Z,5.13
2023-08-14T19:09:53.920Z,4.75
2023-08-14T19:14:55.807Z,4.53
2023-08-14T19:19:57.623Z,5.10
2023-08-14T19:24:59.565Z,5.00
2023-08-14T19:30:01.401Z,4.68
2023-08-14T19:35:03.317Z,4.70
2023-08-14T19:40:09.980Z,4.82
2023-08-14T19:45:12.333Z,4.90
2023-08-14T19:50:15.003Z,5.15
2023-08-14T19:55:16.955Z,5.43
2023-08-14T20:00:18.808Z,6.10
2023-08-14T20:05:20.620Z,5.57
2023-08-14T20:10:22.487Z,5.70
2023-08-14T20:15:24.422Z,5.55
2023-08-14T20:20:26.263Z,5.53
2023-08-14T20:25:28.201Z,5.57
2023-08-14T20:30:30.665Z,5.35
2023-08-14T20:35:38.115Z,5.75
2023-08-14T20:40:40.680Z,6.25
2023-08-14T20:45:42.476Z,6.38
2023-08-14T20:50:48.242Z,7.15
2023-08-14T20:55:50.130Z,6.68
2023-08-14T21:00:52.052Z,7.18
2023-08-14T21:05:55.134Z,7.00
2023-08-14T21:10:58.071Z,7.20
2023-08-14T21:16:00.171Z,7.57
2023-08-14T21:21:01.991Z,7.18
2023-08-14T21:26:03.932Z,6.65
2023-08-14T21:31:05.786Z,7.95
2023-08-14T21:36:07.704Z,7.32
2023-08-14T21:41:10.054Z,7.50
2023-08-14T21:46:12.007Z,7.00
2023-08-14T21:51:14.141Z,7.90
2023-08-14T21:56:16.044Z,7.53
2023-08-14T22:01:18.067Z,7.93
2023-08-14T22:06:20.030Z,7.35
2023-08-14T22:11:21.861Z,7.53
2023-08-14T22:16:24.113Z,7.43
2023-08-14T22:21:26.012Z,7.18
2023-08-14T22:26:27.866Z,7.50
2023-08-14T22:31:29.992Z,7.53
2023-08-14T22:36:31.808Z,7.40
2023-08-14T22:41:33.590Z,7.32
2023-08-14T22:46:35.492Z,7.65
2023-08-14T22:51:37.528Z,6.97
2023-08-14T22:56:39.361Z,6.95
2023-08-14T23:01:41.235Z,7.25
2023-08-14T23:06:43.131Z,7.15
2023-08-14T23:11:45.019Z,7.53
2023-08-14T23:16:46.823Z,6.80
2023-08-14T23:21:48.634Z,7.10
2023-08-14T23:26:50.418Z,6.95
2023-08-14T23:31:52.247Z,7.22
2023-08-14T23:36:54.055Z,6.78
2023-08-14T23:41:56.016Z,7.85
2023-08-14T23:46:57.877Z,6.72
2023-08-14T23:51:59.727Z,7.38
2023-08-14T23:57:01.556Z,7.60
